Time;durP1;ratioP1;P1;durP2;ratioP2;P2;SDS_P1;SDS_P2;PMS_P1;PMS_P2;Temp;Humidity;BMP_temperature;BMP_pressure;BME280_temperature;BME280_humidity;BME280_pressure;Samples;Min_cycle;Max_cycle;Signal;HPM_P1;HPM_P2
2022/03/09 00:01:14;;;;;;;;;;;;;;;2.17;84.80;99836.34;5067474;28;19999;-50
2022/03/09 00:03:40;;;;;;;;;;;;;;;2.06;84.66;99837.34;5058249;28;19908;-50
2022/03/09 00:06:05;;;;;;;;;;;;;;;2.19;85.92;99836.16;5060379;28;20039;-49
2022/03/09 00:08:30;;;;;;;;;;;;;;;2.05;84.36;99835.69;5065105;28;19967;-50
2022/03/09 00:10:55;;;;;;;;;;;;;;;1.76;84.52;99835.81;5054170;28;19971;-52
2022/03/09 00:13:21;;;;;;;;;;;;;;;1.79;83.42;99832.94;5066338;28;20292;-53
2022/03/09 00:15:46;;;;;;;;;;;;;;;1.86;82.70;99826.09;5059064;28;19908;-50
2022/03/09 00:18:11;;;;;;;;;;;;;;;1.70;83.37;99828.53;5059332;28;20289;-50
2022/03/09 00:20:36;;;;;;;;;;;;;;;1.77;83.45;99821.72;5065430;28;19913;-50
2022/03/09 00:23:02;;;;;;;;;;;;;;;1.97;83.27;99821.66;5057812;28;20402;-49
2022/03/09 00:25:27;;;;;;;;;;;;;;;1.70;83.20;99816.25;5069467;28;19917;-53
2022/03/09 00:27:52;;;;;;;;;;;;;;;1.69;84.91;99825.06;5063605;28;19908;-50
2022/03/09 00:30:18;;;;;;;;;;;;;;;1.62;83.76;99823.16;5062010;28;19916;-51
2022/03/09 00:32:43;;;;;;;;;;;;;;;1.63;83.58;99819.59;5070748;28;19965;-49
2022/03/09 00:35:08;;;;;;;;;;;;;;;1.64;83.29;99815.97;5058475;28;19947;-49
2022/03/09 00:37:34;;;;;;;;;;;;;;;1.31;83.38;99810.28;5068539;28;19910;-51
2022/03/09 00:39:59;;;;;;;;;;;;;;;1.28;84.42;99813.22;5064481;28;19972;-52
2022/03/09 00:42:24;;;;;;;;;;;;;;;1.44;83.19;99816.03;5061434;28;19909;-52
2022/03/09 00:44:49;;;;;;;;;;;;;;;1.28;83.64;99810.59;5071070;28;19931;-51
2022/03/09 00:47:15;;;;;;;;;;;;;;;1.58;82.38;99803.44;5058245;28;19939;-51
2022/03/09 00:49:40;;;;;;;;;;;;;;;1.41;83.00;99805.84;5049208;28;19916;-50
2022/03/09 00:52:05;;;;;;;;;;;;;;;1.28;83.61;99798.28;5065050;28;19919;-49
2022/03/09 00:54:31;;;;;;;;;;;;;;;1.24;84.78;99801.31;5060384;28;20089;-49
2022/03/09 00:56:56;;;;;;;;;;;;;;;1.31;83.58;99798.03;5070812;28;20070;-50
2022/03/09 00:59:21;;;;;;;;;;;;;;;1.47;82.05;99797.41;5058445;28;20270;-52
2022/03/09 01:01:46;;;;;;;;;;;;;;;1.49;82.03;99784.16;5066479;28;19920;-49
2022/03/09 01:04:12;;;;;;;;;;;;;;;1.56;81.50;99785.22;5065675;28;20388;-51
2022/03/09 01:06:37;;;;;;;;;;;;;;;1.46;82.92;99787.06;5058929;28;19916;-53
2022/03/09 01:09:02;;;;;;;;;;;;;;;1.43;82.59;99779.47;5070653;28;19908;-50
2022/03/09 01:11:28;;;;;;;;;;;;;;;1.36;81.67;99771.38;5058749;28;19912;-52
2022/03/09 01:13:53;;;;;;;;;;;;;;;1.46;81.95;99781.81;5065026;28;20354;-52
2022/03/09 01:16:18;;;;;;;;;;;;;;;1.60;79.87;99777.88;5066411;28;19943;-51
2022/03/09 01:18:44;;;;;;;;;;;;;;;1.13;81.59;99773.50;5057882;28;20372;-52
2022/03/09 01:21:09;;;;;;;;;;;;;;;1.72;80.86;99782.00;5070611;28;19926;-49
2022/03/09 01:23:34;;;;;;;;;;;;;;;1.13;81.51;99773.50;5060059;28;20277;-51
2022/03/09 01:25:59;;;;;;;;;;;;;;;1.28;81.35;99764.22;5063683;28;19920;-49
2022/03/09 01:28:25;;;;;;;;;;;;;;;1.56;80.82;99772.94;5066918;28;19936;-52
2022/03/09 01:30:50;;;;;;;;;;;;;;;1.82;80.10;99772.25;5056736;28;19919;-48
2022/03/09 01:33:15;;;;;;;;;;;;;;;1.90;79.46;99776.78;5068619;28;20023;-50
2022/03/09 01:35:40;;;;;;;;;;;;;;;1.87;78.69;99772.66;5060446;28;19913;-49
2022/03/09 01:38:06;;;;;;;;;;;;;;;1.91;78.44;99766.13;5062351;28;19950;-48
2022/03/09 01:40:31;;;;;;;;;;;;;;;2.20;77.55;99769.56;5067340;28;19912;-49
2022/03/09 01:42:56;;;;;;;;;;;;;;;1.64;77.85;99774.00;5056701;28;19919;-51
2022/03/09 01:45:22;;;;;;;;;;;;;;;1.86;77.77;99767.53;5068367;28;20524;-52
2022/03/09 01:47:47;;;;;;;;;;;;;;;1.89;77.84;99768.09;5061189;28;19908;-52
2022/03/09 01:50:13;;;;;;;;;;;;;;;1.96;77.08;99770.94;5061374;28;19947;-52
2022/03/09 01:52:39;;;;;;;;;;;;;;;1.85;77.09;99769.34;5068294;28;19915;-48
2022/03/09 01:55:04;;;;;;;;;;;;;;;2.18;76.01;99772.31;5056241;28;19915;-48
2022/03/09 01:57:30;;;;;;;;;;;;;;;2.02;75.73;99772.16;5067371;28;19908;-37
2022/03/09 01:59:55;;;;;;;;;;;;;;;2.12;75.24;99776.38;5062658;28;20024;-48
2022/03/09 02:02:21;;;;;;;;;;;;;;;1.80;76.88;99770.75;5042027;28;19913;-49
2022/03/09 02:04:46;;;;;;;;;;;;;;;1.90;77.96;99774.97;5068761;28;19916;-47
2022/03/09 02:07:11;;;;;;;;;;;;;;;1.49;80.15;99777.09;5038048;28;19912;-49
2022/03/09 02:09:44;;;;;;;;;;;;;;;1.99;77.15;99777.72;5065877;28;19932;-48
2022/03/09 02:12:13;;;;;;;;;;;;;;;1.95;76.02;99772.75;5063479;28;20293;-48
2022/03/09 02:14:39;;;;;;;;;;;;;;;2.13;76.11;99772.78;5057074;28;19909;-48
2022/03/09 02:17:06;;;;;;;;;;;;;;;2.12;75.54;99778.19;5069327;28;19936;-51
2022/03/09 02:19:31;;;;;;;;;;;;;;;1.61;76.01;99776.94;5059037;28;19956;-51
2022/03/09 02:22:07;;;;;;;;;;;;;;;1.75;76.36;99776.44;5063443;28;19955;-49
2022/03/09 02:24:32;;;;;;;;;;;;;;;1.78;75.79;99781.41;5067008;28;20011;-49
2022/03/09 02:26:58;;;;;;;;;;;;;;;2.08;74.59;99784.72;5056427;28;20390;-51
2022/03/09 02:29:23;;;;;;;;;;;;;;;2.04;74.95;99772.84;5067883;28;19909;-51
2022/03/09 02:31:48;;;;;;;;;;;;;;;2.37;73.42;99788.94;5060883;28;19959;-50
2022/03/09 02:34:13;;;;;;;;;;;;;;;1.91;75.73;99781.06;5061035;28;19958;-48
2022/03/09 02:36:39;;;;;;;;;;;;;;;1.77;76.64;99771.88;5068061;28;20287;-49
2022/03/09 02:39:04;;;;;;;;;;;;;;;2.23;73.95;99783.22;5056222;28;20269;-49
2022/03/09 02:41:33;;;;;;;;;;;;;;;2.11;74.10;99780.00;5067310;28;19951;-51
2022/03/09 02:43:59;;;;;;;;;;;;;;;2.07;73.86;99775.16;5062478;28;20292;-47
2022/03/09 02:46:24;;;;;;;;;;;;;;;1.88;75.09;99779.53;5059783;28;20387;-49
2022/03/09 02:48:50;;;;;;;;;;;;;;;1.86;75.13;99773.63;5069223;28;20260;-48
2022/03/09 02:51:15;;;;;;;;;;;;;;;2.10;74.49;99786.19;5056323;28;19913;-48
2022/03/09 02:53:41;;;;;;;;;;;;;;;1.94;74.31;99778.97;5065291;28;19955;-49
2022/03/09 02:56:06;;;;;;;;;;;;;;;1.62;76.21;99776.78;5063565;28;20342;-49
2022/03/09 02:58:31;;;;;;;;;;;;;;;1.99;74.90;99778.53;5058318;28;19920;-52
2022/03/09 03:00:57;;;;;;;;;;;;;;;1.74;75.54;99777.41;5069191;28;20292;-50
2022/03/09 03:03:22;;;;;;;;;;;;;;;2.28;73.51;99780.13;5057112;28;19909;-51
2022/03/09 03:05:47;;;;;;;;;;;;;;;2.33;71.96;99780.53;5064125;28;19909;-51
2022/03/09 03:08:13;;;;;;;;;;;;;;;2.20;72.08;99780.06;5063867;28;19908;-49
2022/03/09 03:10:38;;;;;;;;;;;;;;;2.14;73.32;99784.09;5056924;28;19919;-48
2022/03/09 03:13:03;;;;;;;;;;;;;;;2.22;73.21;99784.19;5068833;28;19908;-49
2022/03/09 03:15:29;;;;;;;;;;;;;;;1.98;73.39;99782.13;5057850;28;19912;-49
2022/03/09 03:17:54;;;;;;;;;;;;;;;2.21;73.32;99784.31;5063028;28;19908;-49
2022/03/09 03:20:19;;;;;;;;;;;;;;;2.10;73.83;99782.75;5065069;28;19927;-52
2022/03/09 03:22:45;;;;;;;;;;;;;;;2.47;72.13;99787.06;5056040;28;19965;-49
2022/03/09 03:25:10;;;;;;;;;;;;;;;2.15;73.38;99788.38;5068364;28;19916;-49
2022/03/09 03:27:35;;;;;;;;;;;;;;;2.47;72.22;99780.00;5058672;28;20326;-52
2022/03/09 03:30:00;;;;;;;;;;;;;;;2.45;71.94;99778.50;5061877;28;20293;-48
2022/03/09 03:32:26;;;;;;;;;;;;;;;2.39;72.96;99785.19;5064415;28;19919;-50
2022/03/09 03:34:51;;;;;;;;;;;;;;;2.34;72.78;99777.75;5054998;28;20023;-49
2022/03/09 03:37:16;;;;;;;;;;;;;;;2.27;72.02;99784.56;5067974;28;20322;-48
2022/03/09 03:39:42;;;;;;;;;;;;;;;2.07;74.29;99783.84;5052804;28;19920;-48
2022/03/09 03:42:07;;;;;;;;;;;;;;;1.99;73.82;99786.41;5054571;28;19912;-50
2022/03/09 03:44:32;;;;;;;;;;;;;;;2.13;73.06;99785.06;5056796;28;19913;-51
2022/03/09 03:46:57;;;;;;;;;;;;;;;1.96;74.51;99789.31;5068123;28;20011;-50
2022/03/09 03:49:23;;;;;;;;;;;;;;;2.43;73.01;99775.19;5056533;28;19909;-49
2022/03/09 03:51:48;;;;;;;;;;;;;;;2.40;71.38;99776.34;5064475;28;20324;-50
2022/03/09 03:54:13;;;;;;;;;;;;;;;1.89;73.34;99781.22;5059610;28;19908;-49
2022/03/09 03:56:38;;;;;;;;;;;;;;;2.06;73.62;99778.78;5066197;28;19908;-50
2022/03/09 03:59:04;;;;;;;;;;;;;;;2.09;72.63;99778.47;5054565;28;19913;-50
2022/03/09 04:01:29;;;;;;;;;;;;;;;1.86;73.60;99778.03;5065541;28;19909;-48
2022/03/09 04:03:54;;;;;;;;;;;;;;;2.27;72.30;99776.69;5060672;28;19957;-50
2022/03/09 04:06:19;;;;;;;;;;;;;;;1.88;71.81;99773.47;5058587;28;19913;-48
2022/03/09 04:08:45;;;;;;;;;;;;;;;2.11;73.02;99774.72;5067698;28;19958;-49
2022/03/09 04:11:10;;;;;;;;;;;;;;;2.43;72.18;99777.81;5054835;28;19917;-50
2022/03/09 04:13:35;;;;;;;;;;;;;;;2.75;69.16;99782.53;5064624;28;19908;-51
2022/03/09 04:16:00;;;;;;;;;;;;;;;1.82;71.13;99780.13;5060672;28;19912;-49
2022/03/09 04:18:26;;;;;;;;;;;;;;;2.01;73.20;99781.00;5057692;28;19999;-50
2022/03/09 04:20:51;;;;;;;;;;;;;;;2.25;70.01;99781.28;5067851;28;19916;-49
2022/03/09 04:23:16;;;;;;;;;;;;;;;1.97;71.29;99779.66;5055152;28;20357;-50
2022/03/09 04:25:41;;;;;;;;;;;;;;;2.15;71.23;99783.13;5063720;28;19920;-52
2022/03/09 04:28:07;;;;;;;;;;;;;;;1.72;70.99;99779.38;5062138;28;19915;-51
2022/03/09 04:30:32;;;;;;;;;;;;;;;1.78;72.18;99780.59;5056421;28;19975;-50
2022/03/09 04:32:58;;;;;;;;;;;;;;;1.99;71.82;99781.16;5067452;28;19908;-49
2022/03/09 04:35:23;;;;;;;;;;;;;;;1.94;71.10;99773.72;5055869;28;20364;-49
2022/03/09 04:37:48;;;;;;;;;;;;;;;1.86;72.00;99784.13;5062784;28;19909;-51
2022/03/09 04:40:14;;;;;;;;;;;;;;;2.09;70.33;99779.28;5062615;28;19991;-51
2022/03/09 04:42:39;;;;;;;;;;;;;;;1.87;71.53;99783.16;5054963;28;19908;-50
2022/03/09 04:45:04;;;;;;;;;;;;;;;2.25;70.59;99791.78;5066230;28;19913;-50
2022/03/09 04:47:30;;;;;;;;;;;;;;;2.23;69.47;99782.38;5055501;28;19990;-48
2022/03/09 04:49:55;;;;;;;;;;;;;;;1.97;70.06;99787.53;5060299;28;19967;-51
2022/03/09 04:52:20;;;;;;;;;;;;;;;1.58;72.27;99785.06;5061944;28;19944;-37
2022/03/09 04:54:46;;;;;;;;;;;;;;;2.18;73.29;99790.72;5069118;28;19915;-38
2022/03/09 04:57:11;;;;;;;;;;;;;;;2.83;72.00;99797.56;5052899;28;19923;-37
2022/03/09 04:59:36;;;;;;;;;;;;;;;2.97;71.22;99789.13;5063589;28;19909;-38
2022/03/09 05:02:01;;;;;;;;;;;;;;;3.37;70.97;99795.63;5050473;28;20304;-38
2022/03/09 05:04:27;;;;;;;;;;;;;;;3.12;75.82;99800.75;5064431;28;19912;-37
2022/03/09 05:06:52;;;;;;;;;;;;;;;2.25;74.84;99794.41;5053143;28;20011;-37
2022/03/09 05:09:17;;;;;;;;;;;;;;;1.77;77.33;99800.72;5056726;28;19908;-37
2022/03/09 05:11:42;;;;;;;;;;;;;;;2.03;78.10;99802.69;5067066;28;20308;-38
2022/03/09 05:14:08;;;;;;;;;;;;;;;2.47;76.25;99805.44;5065679;28;19908;-38
2022/03/09 05:16:33;;;;;;;;;;;;;;;1.90;76.70;99803.84;5074205;28;20025;-38
2022/03/09 05:18:58;;;;;;;;;;;;;;;1.49;79.11;99808.59;5057962;28;19908;-37
2022/03/09 05:21:24;;;;;;;;;;;;;;;1.51;78.93;99805.81;5069419;28;19999;-37
2022/03/09 05:23:49;;;;;;;;;;;;;;;1.44;79.76;99813.41;5053483;28;19928;-37
2022/03/09 05:26:14;;;;;;;;;;;;;;;1.34;79.49;99821.31;5053535;28;20034;-37
2022/03/09 05:28:39;;;;;;;;;;;;;;;1.28;80.09;99826.31;5053438;28;19916;-37
2022/03/09 05:31:05;;;;;;;;;;;;;;;1.29;80.25;99828.78;5051293;28;19948;-37
2022/03/09 05:33:30;;;;;;;;;;;;;;;1.44;80.94;99836.22;5053023;28;19916;-48
2022/03/09 05:35:55;;;;;;;;;;;;;;;1.49;79.34;99834.00;5052918;28;19982;-52
2022/03/09 05:38:20;;;;;;;;;;;;;;;1.41;79.90;99833.84;5023200;28;19917;-52
2022/03/09 05:40:46;;;;;;;;;;;;;;;1.37;80.16;99833.31;5049529;28;19951;-51
2022/03/09 05:43:11;;;;;;;;;;;;;;;1.35;79.32;99840.50;5052633;28;19916;-51
2022/03/09 05:45:36;;;;;;;;;;;;;;;1.44;78.07;99842.28;5053041;28;19951;-52
2022/03/09 05:48:02;;;;;;;;;;;;;;;0.99;80.29;99850.78;5053357;28;20004;-51
2022/03/09 05:50:27;;;;;;;;;;;;;;;1.27;79.25;99846.44;5057200;28;19919;-52
2022/03/09 05:52:52;;;;;;;;;;;;;;;1.13;80.72;99852.97;5055705;28;20506;-50
2022/03/09 05:55:18;;;;;;;;;;;;;;;1.09;81.42;99854.22;5052231;28;19908;-51
2022/03/09 05:57:43;;;;;;;;;;;;;;;1.19;80.52;99869.09;5051252;28;19908;-52
2022/03/09 06:00:08;;;;;;;;;;;;;;;1.42;80.90;99859.94;5050920;28;19995;-51
2022/03/09 06:02:34;;;;;;;;;;;;;;;1.26;82.77;99872.84;5050468;28;20439;-53
2022/03/09 06:04:59;;;;;;;;;;;;;;;1.30;80.46;99868.97;5061884;28;19908;-50
2022/03/09 06:07:24;;;;;;;;;;;;;;;1.26;81.65;99870.22;5051267;28;20003;-49
2022/03/09 06:09:49;;;;;;;;;;;;;;;1.32;80.54;99870.47;5050916;28;20319;-51
2022/03/09 06:12:15;;;;;;;;;;;;;;;1.05;82.10;99878.19;5052525;28;19920;-51
2022/03/09 06:14:40;;;;;;;;;;;;;;;0.99;82.44;99877.00;5052770;28;19908;-53
2022/03/09 06:17:06;;;;;;;;;;;;;;;1.00;82.19;99880.44;5052233;28;19916;-51
2022/03/09 06:19:31;;;;;;;;;;;;;;;0.88;81.70;99882.38;5052267;28;20000;-50
2022/03/09 06:21:56;;;;;;;;;;;;;;;1.04;81.96;99882.63;5052606;28;20015;-53
2022/03/09 06:24:24;;;;;;;;;;;;;;;1.07;81.93;99884.16;5052470;28;20393;-48
2022/03/09 06:26:49;;;;;;;;;;;;;;;1.06;81.83;99885.94;5052688;28;19916;-53
2022/03/09 06:29:14;;;;;;;;;;;;;;;1.21;81.45;99882.91;5052581;28;19909;-52
2022/03/09 06:31:42;;;;;;;;;;;;;;;1.24;82.35;99886.06;5052448;28;20434;-52
2022/03/09 06:34:07;;;;;;;;;;;;;;;1.01;82.17;99888.16;5052938;28;19908;-50
2022/03/09 06:36:33;;;;;;;;;;;;;;;0.80;82.56;99896.16;5052644;28;20308;-52
2022/03/09 06:38:58;;;;;;;;;;;;;;;1.06;82.43;99888.56;5052006;28;19966;-50
2022/03/09 06:41:23;;;;;;;;;;;;;;;1.09;82.23;99890.91;5052488;28;19908;-52
2022/03/09 06:43:48;;;;;;;;;;;;;;;0.94;82.64;99894.91;5052299;28;19912;-53
2022/03/09 06:46:14;;;;;;;;;;;;;;;1.01;82.73;99898.66;5052377;28;19909;-50
2022/03/09 06:48:40;;;;;;;;;;;;;;;1.07;83.06;99892.84;5052196;28;19913;-53
2022/03/09 06:51:05;;;;;;;;;;;;;;;1.23;81.93;99897.50;5059044;28;19963;-50
2022/03/09 06:53:30;;;;;;;;;;;;;;;1.16;81.91;99897.25;5052473;28;19913;-51
2022/03/09 06:55:56;;;;;;;;;;;;;;;1.26;82.13;99907.75;5052185;28;19916;-52
2022/03/09 06:58:21;;;;;;;;;;;;;;;1.20;82.06;99897.81;5052106;28;20285;-50
2022/03/09 07:00:47;;;;;;;;;;;;;;;1.29;81.29;99902.19;5052172;28;19915;-53
2022/03/09 07:03:12;;;;;;;;;;;;;;;1.29;81.33;99896.94;5048712;28;19916;-51
2022/03/09 07:05:37;;;;;;;;;;;;;;;1.24;80.77;99904.44;5052161;28;19952;-54
2022/03/09 07:08:03;;;;;;;;;;;;;;;1.28;81.63;99900.56;5051990;28;19909;-52
2022/03/09 07:10:28;;;;;;;;;;;;;;;1.36;81.50;99903.28;5052067;28;19916;-54
2022/03/09 07:12:53;;;;;;;;;;;;;;;1.24;81.08;99904.44;5052146;28;20418;-54
2022/03/09 07:15:19;;;;;;;;;;;;;;;1.04;81.88;99908.84;5052279;28;19915;-53
2022/03/09 07:17:44;;;;;;;;;;;;;;;1.07;81.35;99910.38;5051826;28;19909;-52
2022/03/09 07:20:10;;;;;;;;;;;;;;;1.02;81.90;99912.56;5051661;28;20003;-54
2022/03/09 07:22:35;;;;;;;;;;;;;;;1.21;81.94;99899.44;5052026;28;19913;-52
2022/03/09 07:25:01;;;;;;;;;;;;;;;1.24;81.83;99899.19;5051747;28;20007;-55
2022/03/09 07:27:26;;;;;;;;;;;;;;;1.14;81.07;99903.59;5051940;28;19919;-55
2022/03/09 07:29:51;;;;;;;;;;;;;;;1.19;81.87;99900.56;5051447;28;19909;-54
2022/03/09 07:32:17;;;;;;;;;;;;;;;1.42;80.72;99901.09;5050938;28;19917;-54
2022/03/09 07:34:42;;;;;;;;;;;;;;;1.19;81.59;99900.56;5051273;28;19913;-55
2022/03/09 07:37:07;;;;;;;;;;;;;;;1.45;80.72;99906.88;5051540;28;20000;-53
2022/03/09 07:39:32;;;;;;;;;;;;;;;1.45;80.27;99904.25;5051662;28;19913;-54
2022/03/09 07:41:58;;;;;;;;;;;;;;;1.63;79.83;99906.16;5051350;28;20296;-54
2022/03/09 07:44:23;;;;;;;;;;;;;;;1.33;80.92;99902.75;5050623;28;19908;-55
2022/03/09 07:46:48;;;;;;;;;;;;;;;1.40;80.68;99903.84;5051172;28;19916;-55
2022/03/09 07:49:14;;;;;;;;;;;;;;;1.27;81.60;99905.94;5051299;28;19995;-52
2022/03/09 07:51:39;;;;;;;;;;;;;;;1.62;80.48;99900.09;5058220;28;20364;-53
2022/03/09 07:54:04;;;;;;;;;;;;;;;1.54;79.88;99903.41;5051017;28;20015;-53
2022/03/09 07:56:30;;;;;;;;;;;;;;;1.72;78.95;99900.06;5051034;28;19973;-55
2022/03/09 07:58:55;;;;;;;;;;;;;;;1.63;79.26;99898.28;5051190;28;20266;-54
2022/03/09 08:01:21;;;;;;;;;;;;;;;1.82;78.65;99898.22;5051116;28;20352;-55
2022/03/09 08:03:46;;;;;;;;;;;;;;;1.99;78.77;99893.22;5051259;28;19909;-54
2022/03/09 08:06:11;;;;;;;;;;;;;;;2.29;78.19;99900.81;5050947;28;19991;-54
2022/03/09 08:08:36;;;;;;;;;;;;;;;2.32;78.58;99894.41;5051318;28;20392;-53
2022/03/09 08:11:02;;;;;;;;;;;;;;;2.56;77.54;99899.13;5050781;28;19921;-51
2022/03/09 08:13:27;;;;;;;;;;;;;;;2.47;78.10;99898.19;5033292;28;19916;-51
2022/03/09 08:15:52;;;;;;;;;;;;;;;2.59;76.01;99906.72;5050844;28;20519;-52
2022/03/09 08:18:18;;;;;;;;;;;;;;;2.31;76.28;99890.97;5050390;28;19915;-51
2022/03/09 08:20:43;;;;;;;;;;;;;;;2.36;77.58;99887.91;5050756;28;19916;-51
2022/03/09 08:23:08;;;;;;;;;;;;;;;2.51;76.43;99893.47;5050609;28;19924;-51
2022/03/09 08:25:34;;;;;;;;;;;;;;;2.54;76.33;99890.56;5050288;28;19920;-50
2022/03/09 08:28:00;;;;;;;;;;;;;;;2.69;76.78;99891.72;5050482;28;19919;-49
2022/03/09 08:30:26;;;;;;;;;;;;;;;2.83;77.05;99898.25;5050540;28;20304;-51
2022/03/09 08:32:51;;;;;;;;;;;;;;;2.64;77.15;99886.06;5050357;28;20360;-50
2022/03/09 08:35:17;;;;;;;;;;;;;;;2.73;76.85;99895.69;5050502;28;19959;-50
2022/03/09 08:37:42;;;;;;;;;;;;;;;2.87;78.25;99891.72;5050793;28;19912;-51
2022/03/09 08:40:08;;;;;;;;;;;;;;;3.48;76.55;99892.72;5049851;28;19951;-53
2022/03/09 08:42:33;;;;;;;;;;;;;;;3.52;76.00;99887.97;5051330;28;19947;-51
2022/03/09 08:44:58;;;;;;;;;;;;;;;3.75;74.82;99887.44;5054229;28;20309;-50
2022/03/09 08:47:24;;;;;;;;;;;;;;;3.57;75.31;99885.69;5054397;28;19928;-50
2022/03/09 08:49:49;;;;;;;;;;;;;;;3.52;74.95;99890.59;5036412;28;19908;-49
2022/03/09 08:52:15;;;;;;;;;;;;;;;4.01;73.16;99890.06;5061249;28;19970;-49
2022/03/09 08:54:40;;;;;;;;;;;;;;;4.14;72.40;99879.09;5054375;28;19995;-50
2022/03/09 08:57:05;;;;;;;;;;;;;;;4.24;71.88;99882.44;5054345;28;20343;-49
2022/03/09 08:59:31;;;;;;;;;;;;;;;4.40;71.69;99882.50;5054423;28;19915;-50
2022/03/09 09:01:56;;;;;;;;;;;;;;;4.47;69.90;99874.75;5054223;28;20430;-51
2022/03/09 09:04:21;;;;;;;;;;;;;;;4.44;69.04;99881.19;5054765;28;19959;-49
2022/03/09 09:06:47;;;;;;;;;;;;;;;4.67;68.80;99875.31;5036316;28;20372;-51
2022/03/09 09:09:14;;;;;;;;;;;;;;;4.97;67.90;99875.66;5053962;28;20315;-51
2022/03/09 09:11:39;;;;;;;;;;;;;;;4.94;67.47;99881.28;5053907;28;19920;-49
2022/03/09 09:14:05;;;;;;;;;;;;;;;5.07;67.54;99868.44;5054205;28;19908;-48
2022/03/09 09:16:30;;;;;;;;;;;;;;;4.73;67.08;99864.13;5053835;28;19958;-49
2022/03/09 09:18:55;;;;;;;;;;;;;;;4.57;67.38;99864.91;5053651;28;20313;-49
2022/03/09 09:21:20;;;;;;;;;;;;;;;4.73;68.01;99871.19;5053969;28;19955;-50
2022/03/09 09:23:46;;;;;;;;;;;;;;;4.76;66.71;99873.50;5053585;28;19920;-49
2022/03/09 09:26:13;;;;;;;;;;;;;;;4.77;66.41;99865.44;5053779;28;19930;-49
2022/03/09 09:28:38;;;;;;;;;;;;;;;4.97;67.28;99879.16;5053524;28;19944;-48
2022/03/09 09:31:03;;;;;;;;;;;;;;;4.98;66.18;99870.22;5053713;28;19963;-48
2022/03/09 09:33:30;;;;;;;;;;;;;;;5.14;65.77;99863.31;5053647;28;19920;-49
2022/03/09 09:35:55;;;;;;;;;;;;;;;5.44;63.52;99865.25;5053697;28;19915;-48
2022/03/09 09:38:20;;;;;;;;;;;;;;;5.57;64.19;99861.28;5053611;28;20030;-51
2022/03/09 09:40:46;;;;;;;;;;;;;;;5.60;64.27;99864.44;5053745;28;19909;-49
2022/03/09 09:43:14;;;;;;;;;;;;;;;5.59;64.67;99865.41;5035546;28;20365;-50
2022/03/09 09:45:40;;;;;;;;;;;;;;;5.34;62.83;99861.16;5053760;28;20007;-49
2022/03/09 09:48:06;;;;;;;;;;;;;;;5.57;62.81;99866.56;5053399;28;19959;-49
2022/03/09 09:50:32;;;;;;;;;;;;;;;5.96;61.81;99855.25;5057929;28;20045;-49
2022/03/09 09:52:58;;;;;;;;;;;;;;;6.06;63.83;99861.19;5055222;28;19909;-49
2022/03/09 09:55:26;;;;;;;;;;;;;;;5.87;61.14;99849.19;5052215;28;20305;-49
2022/03/09 09:57:52;;;;;;;;;;;;;;;5.37;63.01;99847.63;5053315;28;19915;-49
2022/03/09 10:00:17;;;;;;;;;;;;;;;5.37;64.14;99851.09;5035422;28;19909;-49
2022/03/09 10:02:42;;;;;;;;;;;;;;;5.03;64.60;99846.84;5053275;28;20055;-50
2022/03/09 10:05:10;;;;;;;;;;;;;;;4.94;64.07;99844.34;5052863;28;19916;-51
2022/03/09 10:07:48;;;;;;;;;;;;;;;5.24;62.66;99845.50;5052913;28;19915;-52
2022/03/09 10:10:17;;;;;;;;;;;;;;;4.99;62.85;99834.13;5035223;28;19928;-52
2022/03/09 10:12:42;;;;;;;;;;;;;;;5.35;61.20;99842.53;5053311;28;20307;-51
2022/03/09 10:15:07;;;;;;;;;;;;;;;5.60;60.37;99845.94;5052514;28;20364;-49
2022/03/09 10:17:34;;;;;;;;;;;;;;;5.68;61.25;99839.81;5034644;28;19920;-49
2022/03/09 10:20:10;;;;;;;;;;;;;;;5.68;60.37;99826.63;5052719;28;20308;-50
2022/03/09 10:22:36;;;;;;;;;;;;;;;5.72;59.54;99821.81;5053054;28;19999;-54
2022/03/09 10:25:16;;;;;;;;;;;;;;;5.94;59.03;99828.16;5064427;28;20398;-48
2022/03/09 10:27:51;;;;;;;;;;;;;;;6.35;57.73;99826.19;5059755;28;19916;-50
2022/03/09 10:30:23;;;;;;;;;;;;;;;6.01;57.84;99815.97;5060495;28;19913;-51
2022/03/09 10:32:54;;;;;;;;;;;;;;;6.74;56.84;99819.16;5068989;28;19908;-50
2022/03/09 10:35:27;;;;;;;;;;;;;;;6.80;56.17;99816.66;5057307;28;20010;-50
2022/03/09 10:37:52;;;;;;;;;;;;;;;6.54;57.11;99806.41;5062878;28;20340;-52
2022/03/09 10:40:18;;;;;;;;;;;;;;;6.15;57.47;99809.13;5064813;28;19908;-52
2022/03/09 10:42:43;;;;;;;;;;;;;;;6.21;56.56;99809.25;5056152;28;20327;-49
2022/03/09 10:45:09;;;;;;;;;;;;;;;6.47;55.73;99805.47;5068864;28;19915;-52
2022/03/09 10:47:38;;;;;;;;;;;;;;;6.85;54.86;99811.66;5058455;28;19958;-51
2022/03/09 10:50:07;;;;;;;;;;;;;;;6.61;56.27;99810.00;5061405;28;19913;-50
2022/03/09 10:52:41;;;;;;;;;;;;;;;6.64;56.11;99804.38;5066757;28;20015;-49
2022/03/09 10:55:19;;;;;;;;;;;;;;;6.80;56.09;99802.59;5055546;28;19923;-49
2022/03/09 10:57:45;;;;;;;;;;;;;;;7.19;55.79;99797.13;5063850;28;19916;-49
2022/03/09 11:00:11;;;;;;;;;;;;;;;6.98;55.86;99794.34;5045784;28;19908;-48
2022/03/09 11:02:39;;;;;;;;;;;;;;;6.92;55.46;99793.25;5056643;28;19909;-49
2022/03/09 11:05:09;;;;;;;;;;;;;;;7.18;53.92;99790.19;5050970;28;19909;-52
2022/03/09 11:07:37;;;;;;;;;;;;;;;7.21;55.78;99789.00;5053529;28;19932;-50
2022/03/09 11:10:06;;;;;;;;;;;;;;;7.53;54.38;99792.31;5061936;28;20003;-52
2022/03/09 11:12:31;;;;;;;;;;;;;;;7.15;54.30;99785.25;5057285;28;20040;-51
2022/03/09 11:14:56;;;;;;;;;;;;;;;6.98;53.02;99789.88;5068208;28;20422;-50
2022/03/09 11:17:21;;;;;;;;;;;;;;;7.17;53.31;99783.25;5056576;28;20292;-50
2022/03/09 11:19:47;;;;;;;;;;;;;;;6.70;53.57;99778.19;5063003;28;19908;-52
2022/03/09 11:22:12;;;;;;;;;;;;;;;7.29;54.06;99774.88;5063652;28;19915;-50
2022/03/09 11:24:39;;;;;;;;;;;;;;;7.53;51.77;99774.59;5056097;28;20312;-51
2022/03/09 11:27:05;;;;;;;;;;;;;;;7.35;51.50;99774.13;5033844;28;19963;-50
2022/03/09 11:29:33;;;;;;;;;;;;;;;7.52;50.73;99780.06;5033803;28;19912;-49
2022/03/09 11:31:58;;;;;;;;;;;;;;;7.46;52.33;99772.88;5051294;28;19912;-49
2022/03/09 11:34:30;;;;;;;;;;;;;;;7.29;51.42;99770.41;5051591;28;19967;-50
2022/03/09 11:36:56;;;;;;;;;;;;;;;7.03;51.49;99771.63;5051433;28;19908;-53
2022/03/09 11:39:23;;;;;;;;;;;;;;;7.53;51.16;99769.31;5050855;28;20352;-50
2022/03/09 11:41:48;;;;;;;;;;;;;;;7.00;51.17;99764.06;5051124;28;19908;-49
2022/03/09 11:44:24;;;;;;;;;;;;;;;7.42;50.66;99770.59;5051276;28;19909;-51
2022/03/09 11:46:58;;;;;;;;;;;;;;;7.47;49.02;99769.22;5050864;28;20348;-50
2022/03/09 11:49:29;;;;;;;;;;;;;;;7.40;49.19;99764.63;5051047;28;19912;-49
2022/03/09 11:52:14;;;;;;;;;;;;;;;7.31;49.55;99763.13;5057683;28;19990;-50
2022/03/09 11:54:40;;;;;;;;;;;;;;;7.46;48.71;99765.75;5051172;28;19944;-49
2022/03/09 11:57:07;;;;;;;;;;;;;;;8.77;45.78;99753.38;5050845;28;19930;-48
2022/03/09 11:59:32;;;;;;;;;;;;;;;8.49;45.48;99755.16;5050921;28;19933;-49
2022/03/09 12:01:58;;;;;;;;;;;;;;;8.36;46.24;99761.13;5050970;28;20291;-49
2022/03/09 12:04:51;;;;;;;;;;;;;;;7.87;47.00;99757.31;5050999;28;19920;-50
2022/03/09 12:07:28;;;;;;;;;;;;;;;7.91;46.11;99752.47;5035120;28;20008;-48
2022/03/09 12:10:00;;;;;;;;;;;;;;;8.12;46.55;99752.50;5051303;28;19912;-49
2022/03/09 12:12:26;;;;;;;;;;;;;;;8.08;47.06;99755.72;5033144;28;20291;-48
2022/03/09 12:15:08;;;;;;;;;;;;;;;8.31;46.75;99756.38;5050838;28;20384;-48
2022/03/09 12:17:42;;;;;;;;;;;;;;;9.12;43.41;99741.97;5050559;28;19915;-50
2022/03/09 12:20:19;;;;;;;;;;;;;;;8.22;42.95;99739.78;5050897;28;20062;-48
2022/03/09 12:22:57;;;;;;;;;;;;;;;7.73;46.05;99742.25;5051037;28;19913;-50
2022/03/09 12:25:34;;;;;;;;;;;;;;;8.04;46.75;99752.63;5035630;28;19917;-50
2022/03/09 12:28:18;;;;;;;;;;;;;;;9.08;44.93;99741.59;5051062;28;19909;-50
2022/03/09 12:30:47;;;;;;;;;;;;;;;9.11;44.68;99740.38;5051353;28;19982;-49
2022/03/09 12:33:19;;;;;;;;;;;;;;;8.92;42.63;99739.19;5035161;28;19999;-49
2022/03/09 12:35:44;;;;;;;;;;;;;;;8.70;43.03;99725.97;5051478;28;20339;-49
2022/03/09 12:38:10;;;;;;;;;;;;;;;8.63;43.71;99725.09;5051083;28;19974;-49
2022/03/09 12:40:35;;;;;;;;;;;;;;;8.52;44.53;99721.13;5051280;28;20114;-48
2022/03/09 12:43:00;;;;;;;;;;;;;;;8.63;44.25;99725.09;5050947;28;19966;-48
2022/03/09 12:45:26;;;;;;;;;;;;;;;8.65;43.71;99725.72;5051186;28;20355;-48
2022/03/09 12:47:54;;;;;;;;;;;;;;;8.26;46.05;99724.28;5050745;28;19913;-48
2022/03/09 12:50:22;;;;;;;;;;;;;;;8.33;45.06;99730.50;5050723;28;19919;-48
2022/03/09 12:52:48;;;;;;;;;;;;;;;8.65;44.58;99723.06;5050221;28;19927;-48